Strona główna
METAR-TAF:

METAR-TAF

Lotnisko :

Lotnisko Chopina w Warszawie

Warszawa, Polska

Szerokość geograficzna: 52-10N, Długość geograficzna: 020-58E, wysokość: 106 m

Aktualna obserwacja pogody

Raport powstał 38 minut temu, godzina 12:00 UTC
Wiatr 14 kt od południowo-południowy wschód
Temperatura -3°C
Wilgotność 80%
Ciśnienie 1026 hPa
Widzialność 10 km lub więcej
Przerywane chmury na wysokości 1500 ft

METAR: EPWA 191200Z 15014KT 9999 BKN015 M03/M06 Q1026 NOSIG

czas: 13:38 (12:38 UTC)

Prognoza

Raport powstał 1 godzina i 8 minut temu, godzina 11:30 UTC
Prognoza ważna od 19 godzina 12 UTC do 20 godzina 12 UTC
Wiatr 12 kt od południowy wschód
Widzialność 10 km lub więcej
Przerywane chmury na wysokości 1800 ft
Przejściowo
od 19 godzina 12 UTC do 19 godzina 17 UTC
Przerywane chmury na wysokości 1400 ft
Prawdopodobieństwo 40% :
Przejściowo
od 19 godzina 17 UTC do 20 godzina 07 UTC
Przerywane chmury na wysokości 1000 ft

TAF: EPWA 191130Z 1912/2012 14012KT 9999 BKN018 TEMPO 1912/1917 BKN014 PROB40 TEMPO 1917/2007 BKN010

Obserwacja i prognoza pogody dla ponad 4000 lotnisk (raport METAR i TAF).

Dostępne stacje oznaczono żółtymi i czerwonymi punktami na mapie.

Najedź kursorem aby zobaczyć nazwę stacji.

Kliknij aby zobaczyć obserwacje i prognozy pogody.

Aby zmienić mapę: kliknij na zielony przycisk z czarnym krzyżykiem, aby powiększyć; na zielony przycisk z myślnikiem, aby pomniejszyć; na zielone strzałki, aby przejść do map sąsiednich.


METAR-TAF: